createdAt,value
2022-12-23T00:03:22.110Z,100721.59
2022-12-23T00:08:15.832Z,100686.19
2022-12-23T00:13:29.195Z,100710.25
2022-12-23T00:18:23.183Z,100712.03
2022-12-23T00:23:16.491Z,100726.44
2022-12-23T00:28:14.956Z,100715.97
2022-12-23T00:33:09.227Z,100691.06
2022-12-23T00:38:03.250Z,100719.66
2022-12-23T00:42:56.764Z,100681.53
2022-12-23T00:48:07.632Z,100725.19
2022-12-23T00:53:02.094Z,100730.75
2022-12-23T00:57:55.538Z,100722.88
2022-12-23T01:03:07.105Z,100711.53
2022-12-23T01:08:01.321Z,100706.03
2022-12-23T01:12:54.273Z,100720.31
2022-12-23T01:17:47.848Z,100759.63
2022-12-23T01:22:41.519Z,100737.53
2022-12-23T01:27:35.349Z,100734.72
2022-12-23T01:32:28.930Z,100781.31
2022-12-23T01:37:22.485Z,100744.63
2022-12-23T01:42:36.470Z,100733.78
2022-12-23T01:47:41.002Z,100757.94
2022-12-23T01:53:17.068Z,100748.19
2022-12-23T01:58:18.772Z,100762.47
2022-12-23T02:03:43.382Z,100763.13
2022-12-23T02:08:55.642Z,100762.28
2022-12-23T02:14:25.282Z,100745.72
2022-12-23T02:19:38.124Z,100743.25
2022-12-23T02:24:36.851Z,100708.19
2022-12-23T02:29:33.039Z,100724.91
2022-12-23T02:35:05.555Z,100716.78
2022-12-23T02:40:11.365Z,100734.13
2022-12-23T02:45:13.266Z,100709.44
2022-12-23T02:50:18.051Z,100728.06
2022-12-23T02:55:17.083Z,100700.50
2022-12-23T03:00:12.585Z,100675.16
2022-12-23T03:05:05.854Z,100685.31
2022-12-23T03:10:23.660Z,100683.50
2022-12-23T03:15:20.178Z,100700.31
2022-12-23T03:20:55.078Z,100673.97
2022-12-23T03:26:24.175Z,100669.72
2022-12-23T03:31:23.816Z,100671.81
2022-12-23T03:36:39.077Z,100665.19
2022-12-23T03:41:36.224Z,100645.03
2022-12-23T03:46:36.023Z,100656.63
2022-12-23T03:51:48.726Z,100666.41
2022-12-23T03:56:50.283Z,100666.28
2022-12-23T04:01:42.815Z,100665.00
2022-12-23T04:06:50.638Z,100669.69
2022-12-23T04:11:44.044Z,100652.78
2022-12-23T04:16:38.223Z,100659.13
2022-12-23T04:21:31.804Z,100677.78
2022-12-23T04:26:25.329Z,100671.13
2022-12-23T04:31:18.833Z,100665.66
2022-12-23T04:36:12.072Z,100637.38
2022-12-23T04:41:05.936Z,100672.06
2022-12-23T04:46:00.238Z,100647.75
2022-12-23T04:50:53.892Z,100678.41
2022-12-23T04:55:50.465Z,100706.78
2022-12-23T05:00:44.349Z,100676.91
2022-12-23T05:05:43.598Z,100659.78
2022-12-23T05:10:36.712Z,100683.09
2022-12-23T05:15:33.472Z,100664.88
2022-12-23T05:20:26.030Z,100671.72
2022-12-23T05:25:19.591Z,100664.53
2022-12-23T05:30:13.573Z,100674.94
2022-12-23T05:35:08.118Z,100687.53
2022-12-23T05:40:00.703Z,100693.75
2022-12-23T05:44:54.236Z,100670.50
2022-12-23T05:49:48.344Z,100686.69
2022-12-23T05:54:42.265Z,100714.47
2022-12-23T05:59:36.093Z,100726.22
2022-12-23T06:04:29.871Z,100733.75
2022-12-23T06:09:22.906Z,100739.81
2022-12-23T06:14:28.373Z,100736.31
2022-12-23T06:19:22.312Z,100704.38
2022-12-23T06:24:17.605Z,100693.88
2022-12-23T06:29:11.787Z,100689.31
2022-12-23T06:34:06.031Z,100709.34
2022-12-23T06:38:58.721Z,100717.75
2022-12-23T06:43:54.395Z,100698.22
2022-12-23T06:48:49.051Z,100715.00
2022-12-23T06:53:43.433Z,100702.53
2022-12-23T06:58:36.961Z,100714.81
2022-12-23T07:03:30.781Z,100728.06
2022-12-23T07:08:24.434Z,100727.53
2022-12-23T07:13:17.898Z,100713.56
2022-12-23T07:18:11.869Z,100752.47
2022-12-23T07:23:05.759Z,100715.09
2022-12-23T07:27:59.631Z,100693.97
2022-12-23T07:32:53.650Z,100723.38
2022-12-23T07:37:51.529Z,100729.44
2022-12-23T07:42:46.746Z,100724.81
2022-12-23T07:47:41.100Z,100740.88
2022-12-23T07:52:35.721Z,100755.03
2022-12-23T07:57:29.427Z,100759.56
2022-12-23T08:02:25.970Z,100763.03
2022-12-23T08:07:19.896Z,100769.00
2022-12-23T08:12:14.197Z,100778.75
2022-12-23T08:17:07.574Z,100717.28
2022-12-23T08:22:02.115Z,100739.34
2022-12-23T08:26:55.979Z,100723.78
2022-12-23T08:31:51.209Z,100759.31
2022-12-23T08:36:44.971Z,100758.00
2022-12-23T08:41:41.108Z,100772.56
2022-12-23T08:46:35.143Z,100753.56
2022-12-23T08:51:28.916Z,100774.22
2022-12-23T08:56:24.152Z,100763.91
2022-12-23T09:01:21.005Z,100773.22
2022-12-23T09:06:28.276Z,100773.13
2022-12-23T09:11:24.323Z,100777.72
2022-12-23T09:16:18.808Z,100769.19
2022-12-23T09:21:18.416Z,100779.28
2022-12-23T09:26:12.295Z,100774.03
2022-12-23T09:31:13.334Z,100758.63
2022-12-23T09:36:07.266Z,100797.59
2022-12-23T09:41:12.968Z,100796.84
2022-12-23T09:46:25.674Z,100773.69
2022-12-23T09:51:22.790Z,100774.78
2022-12-23T09:56:28.400Z,100792.31
2022-12-23T10:01:44.788Z,100753.81
2022-12-23T10:06:41.525Z,100751.63
2022-12-23T10:11:38.516Z,100777.56
2022-12-23T10:16:38.787Z,100767.47
2022-12-23T10:21:47.549Z,100765.91
2022-12-23T10:27:03.208Z,100790.28
2022-12-23T10:32:17.702Z,100771.59
2022-12-23T10:37:28.815Z,100778.78
2022-12-23T10:42:37.711Z,100751.19
2022-12-23T10:47:48.201Z,100766.41
2022-12-23T10:52:49.597Z,100756.69
2022-12-23T10:57:42.596Z,100753.44
2022-12-23T11:02:51.175Z,100766.50
2022-12-23T11:07:48.132Z,100757.69
2022-12-23T11:12:49.823Z,100804.53
2022-12-23T11:17:43.508Z,100785.94
2022-12-23T11:22:37.189Z,100756.97
2022-12-23T11:27:30.422Z,100804.28
2022-12-23T11:32:27.003Z,100793.78
2022-12-23T11:37:43.948Z,100787.50
2022-12-23T11:42:37.777Z,100717.53
2022-12-23T11:47:42.089Z,100699.31
2022-12-23T11:52:35.365Z,100687.88
2022-12-23T11:57:34.445Z,100721.31
2022-12-23T12:02:45.328Z,100681.47
2022-12-23T12:07:46.966Z,100694.97
2022-12-23T12:12:40.830Z,100649.22
2022-12-23T12:17:40.526Z,100673.63
2022-12-23T12:22:41.848Z,100662.97
2022-12-23T12:27:40.033Z,100668.44
2022-12-23T12:32:43.765Z,100672.00
2022-12-23T12:37:44.024Z,100654.59
2022-12-23T12:42:48.518Z,100636.97
2022-12-23T12:48:06.046Z,100657.00
2022-12-23T12:53:21.682Z,100664.84
2022-12-23T12:58:24.518Z,100655.78
2022-12-23T13:03:33.129Z,100657.75
2022-12-23T13:09:01.337Z,100670.91
2022-12-23T13:14:19.990Z,100629.34
2022-12-23T13:19:31.838Z,100640.03
2022-12-23T13:25:03.993Z,100634.56
2022-12-23T13:30:24.119Z,100646.09
2022-12-23T13:35:41.504Z,100639.69
2022-12-23T13:40:44.508Z,100645.16
2022-12-23T13:45:40.991Z,100628.94
2022-12-23T13:50:43.597Z,100673.31
2022-12-23T13:55:45.841Z,100680.09
2022-12-23T14:00:41.590Z,100680.38
2022-12-23T14:05:45.667Z,100688.97
2022-12-23T14:10:40.233Z,100691.63
2022-12-23T14:15:44.232Z,100646.06
2022-12-23T14:21:11.117Z,100689.84
2022-12-23T14:26:34.896Z,100681.91
2022-12-23T14:31:31.280Z,100657.94
2022-12-23T14:36:27.166Z,100691.38
2022-12-23T14:41:24.937Z,100686.69
2022-12-23T14:46:35.700Z,100692.66
2022-12-23T14:51:38.697Z,100665.38
2022-12-23T14:56:43.715Z,100659.41
2022-12-23T15:01:43.809Z,100629.81
2022-12-23T15:06:39.785Z,100644.28
2022-12-23T15:11:39.048Z,100639.69
2022-12-23T15:16:38.600Z,100658.69
2022-12-23T15:21:34.043Z,100650.84
2022-12-23T15:26:30.803Z,100650.75
2022-12-23T15:31:23.968Z,100656.81
2022-12-23T15:36:35.846Z,100635.41
2022-12-23T15:41:31.374Z,100649.66
2022-12-23T15:46:30.187Z,100679.69
2022-12-23T15:51:49.992Z,100693.34
2022-12-23T15:56:45.404Z,100694.94
2022-12-23T16:01:42.402Z,100666.19
2022-12-23T16:06:37.583Z,100668.25
2022-12-23T16:11:55.471Z,100657.50
2022-12-23T16:16:48.554Z,100620.97
2022-12-23T16:21:42.735Z,100608.50
2022-12-23T16:26:51.135Z,100581.81
2022-12-23T16:31:57.566Z,100625.16
2022-12-23T16:36:55.337Z,100649.22
2022-12-23T16:41:49.380Z,100675.59
2022-12-23T16:46:48.331Z,100691.09
2022-12-23T16:51:41.285Z,100697.28
2022-12-23T16:56:37.320Z,100700.84
2022-12-23T17:01:39.699Z,100693.50
2022-12-23T17:06:33.761Z,100665.31
2022-12-23T17:11:42.465Z,100690.28
2022-12-23T17:16:35.425Z,100702.38
2022-12-23T17:21:34.535Z,100697.53
2022-12-23T17:26:28.596Z,100707.84
2022-12-23T17:31:26.486Z,100712.03
2022-12-23T17:36:20.999Z,100729.72
2022-12-23T17:41:32.326Z,100691.06
2022-12-23T17:46:27.791Z,100686.00
2022-12-23T17:51:23.597Z,100701.44
2022-12-23T17:56:20.253Z,100704.81
2022-12-23T18:01:32.500Z,100706.16
2022-12-23T18:06:27.803Z,100734.16
2022-12-23T18:11:42.531Z,100737.72
2022-12-23T18:16:35.725Z,100720.31
2022-12-23T18:21:30.372Z,100718.06
2022-12-23T18:26:23.482Z,100709.41
2022-12-23T18:31:46.718Z,100688.97
2022-12-23T18:36:43.669Z,100727.19
2022-12-23T18:41:37.177Z,100720.91
2022-12-23T18:46:30.267Z,100701.69
2022-12-23T18:51:23.883Z,100668.78
2022-12-23T18:56:19.905Z,100676.28
2022-12-23T19:01:17.922Z,100688.81
2022-12-23T19:06:13.879Z,100712.63
2022-12-23T19:11:19.393Z,100640.63
2022-12-23T19:16:16.148Z,100691.03
2022-12-23T19:21:10.829Z,100664.50
2022-12-23T19:26:06.551Z,100670.41
2022-12-23T19:31:00.154Z,100650.94
2022-12-23T19:35:53.558Z,100636.94
2022-12-23T19:40:56.373Z,100647.34
2022-12-23T19:46:03.770Z,100654.28
2022-12-23T19:51:01.972Z,100649.97
2022-12-23T19:56:03.845Z,100645.22
2022-12-23T20:01:18.856Z,100664.19
2022-12-23T20:06:39.014Z,100686.06
2022-12-23T20:11:37.876Z,100713.81
2022-12-23T20:16:31.285Z,100701.44
2022-12-23T20:21:25.545Z,100719.94
2022-12-23T20:26:20.651Z,100677.81
2022-12-23T20:31:15.990Z,100726.00
2022-12-23T20:36:15.391Z,100703.41
2022-12-23T20:41:11.182Z,100734.56
2022-12-23T20:46:06.504Z,100731.75
2022-12-23T20:51:08.379Z,100786.44
2022-12-23T20:56:06.014Z,100762.81
2022-12-23T21:01:11.331Z,100760.94
2022-12-23T21:06:06.264Z,100768.81
2022-12-23T21:11:00.282Z,100749.16
2022-12-23T21:15:54.166Z,100767.81
2022-12-23T21:20:47.906Z,100752.16
2022-12-23T21:25:41.097Z,100762.06
2022-12-23T21:30:35.792Z,100806.22
2022-12-23T21:35:30.253Z,100801.22
2022-12-23T21:40:24.255Z,100766.31
2022-12-23T21:45:18.505Z,100765.75
2022-12-23T21:50:11.549Z,100791.69
2022-12-23T21:55:06.381Z,100815.97
2022-12-23T22:00:00.441Z,100795.31
2022-12-23T22:04:54.069Z,100810.13
2022-12-23T22:09:47.791Z,100782.97
2022-12-23T22:14:41.196Z,100798.19
2022-12-23T22:19:38.802Z,100765.75
2022-12-23T22:24:32.647Z,100702.38
2022-12-23T22:29:26.632Z,100731.59
2022-12-23T22:34:21.669Z,100730.22
2022-12-23T22:39:20.454Z,100740.81
2022-12-23T22:44:15.547Z,100751.41
2022-12-23T22:49:17.052Z,100765.66
2022-12-23T22:54:10.858Z,100726.81
2022-12-23T22:59:05.584Z,100687.53
2022-12-23T23:04:00.100Z,100706.84
2022-12-23T23:08:54.995Z,100711.19
2022-12-23T23:13:49.242Z,100680.47
2022-12-23T23:18:41.907Z,100640.50
2022-12-23T23:23:35.693Z,100643.56
2022-12-23T23:28:29.834Z,100586.47
2022-12-23T23:33:22.106Z,100566.59
2022-12-23T23:38:15.384Z,100564.19
2022-12-23T23:43:09.290Z,100600.47
2022-12-23T23:48:02.922Z,100626.91
2022-12-23T23:52:56.539Z,100624.97
2022-12-23T23:57:49.828Z,100608.19
